Página principal
METAR-TAF:

METAR-TAF

Aeroportos :

Chita, Rússia

latitude: 52-05N, longitude: 113-29E, altura: 685 m

Observação actual do tempo

O boletim foi feito há 45 minutos, às 01:30 UTC
Vento 6 kt de este
Temperatura 1°C
Humidade 51%
Pressão 1014 hPa
Visibilidade 10 km ou mais

METAR: UIAA 280130Z 09003MPS 9999 NSC 01/M08 Q1014 R29/CLRD70 NOSIG RMK QFE702

Hora: 11:15 (02:15 UTC)

Previsão

O boletim foi feito há 1 hora e 0 minutos, às 01:15 UTC
Previsão válida de 28 às 01 UTC a 28 às 24 UTC
Vento 16 kt de norte com rajadas de 25 kt
Visibilidade 10 km ou mais
Nuvens fragmentadasa uma altura de 3000 ft, Cumulonimbus.

TAF: UIAA 280115Z 2801/2824 36008G13MPS 9999 BKN030CB

Observações e previsões do tempo de mais de 4000 aeroportos (mensagens METAR e TAF).

As estações disponíveis são os pontos amarelos e vermelhos sobre o mapa.

Mova o rato sobre o mapa para ver o nome da estação.

Depois clique no ponto para visualizar as observações e previsões meteorológicas.

Para alterar o mapa : clique nos botões verdes com uma cruz preta para aumentar o zoom; no botão verde com uma pitada de zoom; ou nas setas verdes para mapas adjacentes.


METAR-TAF: